Time;durP1;ratioP1;P1;durP2;ratioP2;P2;SDS_P1;SDS_P2;PMS_P1;PMS_P2;Temp;Humidity;BMP_temperature;BMP_pressure;BME280_temperature;BME280_humidity;BME280_pressure;Samples;Min_cycle;Max_cycle;Signal;HPM_P1;HPM_P2
2024/01/02 00:00:59;;;;;;;0.70;0.70;;;;;;;3.12;88.16;99281.00;5095967;28;20048;-64
2024/01/02 00:03:28;;;;;;;0.70;0.70;;;;;;;3.11;88.24;99278.47;5095652;28;20048;-64
2024/01/02 00:05:57;;;;;;;0.88;0.88;;;;;;;3.08;88.88;99274.19;5096233;28;20044;-64
2024/01/02 00:08:26;;;;;;;0.80;0.80;;;;;;;3.12;88.24;99275.97;5096132;28;20406;-65
2024/01/02 00:10:56;;;;;;;1.30;1.20;;;;;;;3.15;89.10;99280.22;5096051;28;20289;-65
2024/01/02 00:13:25;;;;;;;1.25;1.20;;;;;;;3.09;88.45;99275.06;5094227;28;20758;-64
2024/01/02 00:15:54;;;;;;;0.37;0.37;;;;;;;3.11;88.70;99278.47;5096579;28;20043;-64
2024/01/02 00:18:23;;;;;;;0.70;0.70;;;;;;;3.17;89.16;99278.56;5094522;28;20486;-64
2024/01/02 00:20:52;;;;;;;0.52;0.52;;;;;;;3.14;88.56;99283.56;5095832;28;20517;-65
2024/01/02 00:23:21;;;;;;;6.30;1.33;;;;;;;3.09;88.73;99280.94;5095566;28;20029;-65
2024/01/02 00:25:49;;;;;;;2.90;1.03;;;;;;;3.10;89.10;99281.78;5095622;28;20273;-65
2024/01/02 00:28:20;;;;;;;0.68;0.68;;;;;;;3.04;88.45;99274.09;5095736;28;20308;-64
2024/01/02 00:30:49;;;;;;;0.80;0.80;;;;;;;2.94;89.18;99262.09;5094517;28;20560;-64
2024/01/02 00:33:18;;;;;;;0.40;0.40;;;;;;;2.99;88.62;99278.19;5095555;28;20032;-65
2024/01/02 00:35:47;;;;;;;0.38;0.38;;;;;;;3.03;88.64;99272.38;5095304;28;20036;-65
2024/01/02 00:38:17;;;;;;;0.70;0.70;;;;;;;2.99;88.26;99279.03;5094127;28;20173;-65
2024/01/02 00:40:47;;;;;;;0.85;0.85;;;;;;;2.96;88.56;99278.09;5094368;28;20044;-65
2024/01/02 00:43:15;;;;;;;0.40;0.40;;;;;;;2.94;88.52;99274.69;5094020;28;20040;-65
2024/01/02 00:45:45;;;;;;;0.40;0.40;;;;;;;2.93;88.79;99278.06;5095450;28;20285;-65
2024/01/02 00:48:15;;;;;;;0.65;0.65;;;;;;;2.88;88.46;99279.63;5094246;28;20067;-65
2024/01/02 00:50:43;;;;;;;0.73;0.73;;;;;;;2.78;88.43;99280.22;5095306;28;20043;-65
2024/01/02 00:53:12;;;;;;;0.50;0.50;;;;;;;2.66;87.83;99280.78;5094088;28;20033;-65
2024/01/02 00:55:42;;;;;;;3.42;1.42;;;;;;;2.70;88.88;99278.38;5095160;28;20044;-64
2024/01/02 00:58:10;;;;;;;0.93;0.93;;;;;;;2.75;88.99;99272.56;5093682;28;20051;-65
2024/01/02 01:00:39;;;;;;;0.50;0.50;;;;;;;2.82;88.41;99281.97;5095113;28;20028;-64
2024/01/02 01:03:09;;;;;;;1.23;1.20;;;;;;;2.82;88.63;99284.50;5093394;28;20139;-65
2024/01/02 01:05:39;;;;;;;1.02;1.02;;;;;;;2.87;88.90;99293.03;5093420;28;20097;-65
2024/01/02 01:08:08;;;;;;;1.58;1.48;;;;;;;2.84;88.37;99293.78;5094999;28;20043;-64
2024/01/02 01:10:37;;;;;;;0.38;0.38;;;;;;;2.75;88.14;99295.25;5093872;28;20118;-65
2024/01/02 01:13:06;;;;;;;0.73;0.73;;;;;;;2.73;89.23;99292.72;5093655;28;20052;-65
2024/01/02 01:15:35;;;;;;;1.35;1.33;;;;;;;2.72;88.42;99296.03;5094682;28;20394;-65
2024/01/02 01:18:05;;;;;;;0.47;0.47;;;;;;;2.71;88.32;99295.16;5093894;28;20035;-65
2024/01/02 01:20:35;;;;;;;0.70;0.70;;;;;;;2.67;88.49;99303.47;5095045;28;20551;-65
2024/01/02 01:23:04;;;;;;;0.80;0.80;;;;;;;2.68;89.32;99297.63;5093187;28;20036;-65
2024/01/02 01:25:34;;;;;;;0.30;0.30;;;;;;;2.67;88.53;99295.91;5092319;28;20036;-65
2024/01/02 01:28:03;;;;;;;1.23;1.15;;;;;;;2.68;88.71;99286.69;5093492;28;20031;-64
2024/01/02 01:30:32;;;;;;;;;;;;;;;2.68;88.87;99287.56;5093868;28;20126;-64
2024/01/02 01:33:00;;;;;;;2.40;1.63;;;;;;;2.69;89.46;99286.72;5093046;28;20010;-64
2024/01/02 01:35:29;;;;;;;0.73;0.73;;;;;;;2.68;89.09;99292.59;5093267;28;20490;-64
2024/01/02 01:38:00;;;;;;;0.30;0.30;;;;;;;2.70;89.14;99280.88;5094501;28;20064;-64
2024/01/02 01:40:29;;;;;;;1.17;1.10;;;;;;;2.66;88.98;99271.53;5094462;28;20171;-65
2024/01/02 01:42:58;;;;;;;;;;;;;;;2.73;89.00;99280.94;5094688;28;20155;-65
2024/01/02 01:45:27;;;;;;;0.50;0.50;;;;;;;2.71;89.43;99281.75;5093922;28;19924;-64
2024/01/02 01:47:55;;;;;;;0.60;0.60;;;;;;;2.71;89.47;99277.53;5094357;28;20040;-65
2024/01/02 01:50:25;;;;;;;0.60;0.60;;;;;;;2.70;88.94;99280.88;5093117;28;20139;-65
2024/01/02 01:52:54;;;;;;;0.60;0.60;;;;;;;2.72;88.75;99274.22;5093047;28;20047;-65
2024/01/02 01:55:24;;;;;;;0.45;0.45;;;;;;;2.76;89.54;99274.28;5092995;28;20040;-65
2024/01/02 01:57:54;;;;;;;0.47;0.47;;;;;;;2.80;88.73;99286.13;5076017;28;20052;-65
2024/01/02 02:00:23;;;;;;;0.63;0.63;;;;;;;2.82;88.54;99305.50;5093009;28;20097;-64
2024/01/02 02:02:52;;;;;;;0.43;0.43;;;;;;;2.80;88.91;99301.25;5092208;28;20056;-64
2024/01/02 02:05:24;;;;;;;0.35;0.35;;;;;;;2.78;89.05;99302.88;5092928;28;20075;-64
2024/01/02 02:07:54;;;;;;;0.65;0.65;;;;;;;2.77;89.25;99296.13;5093996;28;20406;-64
2024/01/02 02:10:25;;;;;;;1.40;1.30;;;;;;;2.72;88.62;99285.94;5093747;28;20093;-65
2024/01/02 02:12:55;;;;;;;0.77;0.77;;;;;;;2.67;88.51;99290.03;5093720;28;20079;-65
2024/01/02 02:15:24;;;;;;;0.73;0.73;;;;;;;2.63;88.85;99284.06;5092424;28;20044;-65
2024/01/02 02:17:53;;;;;;;0.70;0.70;;;;;;;2.56;88.85;99276.31;5092578;28;20051;-65
2024/01/02 02:20:22;;;;;;;2.95;1.52;;;;;;;2.58;89.31;99288.16;5075768;28;20048;-65
2024/01/02 02:22:53;;;;;;;0.77;0.77;;;;;;;2.58;89.15;99290.66;5092240;28;20039;-65
2024/01/02 02:25:22;;;;;;;2.08;1.48;;;;;;;2.52;89.02;99280.44;5092584;28;20044;-65
2024/01/02 02:27:51;;;;;;;0.60;0.60;;;;;;;2.49;88.80;99285.41;5093939;28;20087;-65
2024/01/02 02:30:20;;;;;;;0.40;0.40;;;;;;;2.45;88.41;99288.66;5092272;28;20044;-65
2024/01/02 02:32:48;;;;;;;15.60;1.40;;;;;;;2.45;88.45;99283.59;5093450;28;20062;-65
2024/01/02 02:35:18;;;;;;;0.65;0.65;;;;;;;2.45;88.41;99278.56;5093938;28;20040;-65
2024/01/02 02:37:46;;;;;;;0.77;0.77;;;;;;;2.44;89.00;99284.44;5096627;28;20093;-65
2024/01/02 02:40:17;;;;;;;0.40;0.40;;;;;;;2.44;88.85;99281.94;5096237;28;20044;-65
2024/01/02 02:42:46;;;;;;;0.40;0.40;;;;;;;2.44;88.44;99276.88;5098023;28;20104;-65
2024/01/02 02:45:15;;;;;;;0.47;0.47;;;;;;;2.37;88.20;99274.19;5097268;28;20036;-64
2024/01/02 02:47:43;;;;;;;0.40;0.40;;;;;;;2.32;88.47;99275.72;5096482;28;20085;-65
2024/01/02 02:50:13;;;;;;;0.50;0.50;;;;;;;2.22;88.04;99283.84;5097719;28;20047;-65
2024/01/02 02:52:42;;;;;;;0.70;0.70;;;;;;;2.16;88.29;99273.63;5097617;28;20044;-64
2024/01/02 02:55:17;;;;;;;0.30;0.30;;;;;;;2.17;89.00;99286.25;5097395;28;20581;-65
2024/01/02 02:57:46;;;;;;;1.15;1.15;;;;;;;2.24;88.41;99283.06;5096369;28;20134;-65
2024/01/02 03:00:15;;;;;;;0.60;0.60;;;;;;;2.22;88.60;99289.75;5097782;28;20525;-65
2024/01/02 03:02:44;;;;;;;0.40;0.40;;;;;;;2.20;88.83;99285.47;5097089;28;20055;-65
2024/01/02 03:05:15;;;;;;;0.57;0.57;;;;;;;2.08;88.83;99270.06;5097113;28;20040;-65
2024/01/02 03:07:45;;;;;;;0.40;0.40;;;;;;;2.10;88.83;99268.44;5097427;28;20424;-65
2024/01/02 03:10:17;;;;;;;0.40;0.40;;;;;;;2.13;88.73;99259.31;5096928;28;20060;-65
2024/01/02 03:12:49;;;;;;;0.70;0.70;;;;;;;2.18;88.62;99257.75;5095929;28;20064;-65
2024/01/02 03:15:17;;;;;;;1.75;0.90;;;;;;;2.12;89.15;99267.66;5097254;28;20052;-65
2024/01/02 03:17:46;;;;;;;0.70;0.70;;;;;;;2.02;87.90;99270.75;5096789;28;20397;-65
2024/01/02 03:20:15;;;;;;;0.40;0.40;;;;;;;1.93;88.46;99268.84;5095591;28;20563;-65
2024/01/02 03:22:44;;;;;;;0.32;0.32;;;;;;;1.89;88.37;99271.25;5097056;28;20047;-65
2024/01/02 03:25:13;;;;;;;0.67;0.67;;;;;;;1.88;88.51;99262.84;5097191;28;20044;-65
2024/01/02 03:27:42;;;;;;;;;;;;;;;1.91;88.81;99259.56;5097385;28;20323;-65
2024/01/02 03:30:13;;;;;;;1.45;1.35;;;;;;;1.90;88.15;99255.31;5096828;28;19920;-65
2024/01/02 03:32:42;;;;;;;0.30;0.30;;;;;;;2.01;88.61;99264.03;5097139;28;20044;-65
2024/01/02 03:35:12;;;;;;;0.40;0.40;;;;;;;1.97;88.89;99232.03;5096844;28;20040;-65
2024/01/02 03:37:42;;;;;;;4.63;1.08;;;;;;;2.15;88.76;99251.78;5096827;28;20052;-65
2024/01/02 03:40:12;;;;;;;1.48;1.38;;;;;;;2.15;88.25;99261.84;5096686;28;20435;-65
2024/01/02 03:42:40;;;;;;;;;;;;;;;2.13;89.26;99259.31;5095909;28;20043;-65
2024/01/02 03:45:10;;;;;;;0.75;0.75;;;;;;;2.04;88.52;99259.03;5096637;28;19920;-65
2024/01/02 03:47:40;;;;;;;0.30;0.30;;;;;;;2.06;88.61;99256.59;5095711;28;20085;-65
2024/01/02 03:50:10;;;;;;;0.47;0.47;;;;;;;2.12;89.41;99257.59;5096486;28;20048;-65
2024/01/02 03:52:40;;;;;;;0.50;0.50;;;;;;;2.18;88.83;99265.31;5095260;28;20032;-65
2024/01/02 03:55:09;;;;;;;0.40;0.40;;;;;;;2.13;89.30;99258.44;5096159;28;20044;-65
2024/01/02 03:57:38;;;;;;;0.65;0.65;;;;;;;2.10;89.37;99254.19;5096047;28;20036;-65
2024/01/02 04:00:08;;;;;;;0.43;0.43;;;;;;;2.17;88.49;99261.09;5095976;28;20059;-65
2024/01/02 04:02:38;;;;;;;0.30;0.30;;;;;;;2.20;88.86;99253.63;5094752;28;20054;-65
2024/01/02 04:05:10;;;;;;;0.40;0.40;;;;;;;2.13;88.70;99253.41;5096220;28;20044;-65
2024/01/02 04:07:39;;;;;;;0.60;0.60;;;;;;;2.09;88.81;99254.16;5094718;28;20052;-65
2024/01/02 04:10:10;;;;;;;0.57;0.57;;;;;;;2.05;88.75;99260.75;5096157;28;20032;-65
2024/01/02 04:12:38;;;;;;;1.05;1.00;;;;;;;1.99;88.56;99248.88;5095764;28;20042;-65
2024/01/02 04:15:08;;;;;;;0.50;0.50;;;;;;;2.05;88.60;99258.25;5096142;28;20043;-65
2024/01/02 04:17:37;;;;;;;0.50;0.50;;;;;;;2.10;88.76;99254.19;5095961;28;20296;-65
2024/01/02 04:20:06;;;;;;;0.43;0.43;;;;;;;2.17;88.60;99255.19;5094687;28;20521;-65
2024/01/02 04:22:37;;;;;;;;;;;;;;;2.20;88.54;99251.09;5096148;28;20077;-65
2024/01/02 04:25:07;;;;;;;1.65;1.10;;;;;;;2.21;89.56;99255.31;5094444;28;19920;-65
2024/01/02 04:27:36;;;;;;;1.40;1.35;;;;;;;2.12;89.03;99241.63;5095844;28;20046;-65
2024/01/02 04:30:05;;;;;;;1.60;1.50;;;;;;;2.05;88.72;99225.53;5094580;28;20131;-65
2024/01/02 04:32:34;;;;;;;1.45;1.35;;;;;;;2.16;89.01;99251.81;5095382;28;20052;-65
2024/01/02 04:35:04;;;;;;;1.55;1.45;;;;;;;2.14;88.81;99250.94;5095576;28;20485;-65
2024/01/02 04:37:33;;;;;;;0.70;0.70;;;;;;;2.04;88.48;99248.97;5094191;28;20054;-65
2024/01/02 04:40:04;;;;;;;0.73;0.73;;;;;;;1.88;89.18;99241.84;5094372;28;20036;-65
2024/01/02 04:42:35;;;;;;;0.50;0.50;;;;;;;1.94;88.45;99257.13;5094144;28;20307;-65
2024/01/02 04:45:05;;;;;;;0.40;0.40;;;;;;;1.91;88.58;99246.97;5095295;28;20036;-65
2024/01/02 04:47:33;;;;;;;12.25;1.38;;;;;;;1.93;88.99;99250.38;5094492;28;20043;-65
2024/01/02 04:50:04;;;;;;;0.70;0.70;;;;;;;1.93;89.00;99261.31;5095054;28;20040;-65
2024/01/02 04:52:33;;;;;;;0.40;0.40;;;;;;;1.85;88.57;99256.88;5094649;28;20126;-65
2024/01/02 04:55:03;;;;;;;0.50;0.50;;;;;;;1.73;88.76;99236.41;5094011;28;20067;-65
2024/01/02 04:57:32;;;;;;;1.17;1.08;;;;;;;1.83;89.15;99238.38;5095292;28;20123;-65
2024/01/02 05:00:01;;;;;;;0.40;0.40;;;;;;;1.80;89.05;99235.78;5095394;28;20040;-65
2024/01/02 05:02:30;;;;;;;1.30;1.03;;;;;;;1.78;88.77;99237.38;5094752;28;20052;-65
2024/01/02 05:04:59;;;;;;;1.73;1.63;;;;;;;1.80;89.09;99243.34;5076724;28;20047;-65
2024/01/02 05:07:28;;;;;;;1.35;1.25;;;;;;;1.76;88.78;99239.00;5094737;28;20364;-65
2024/01/02 05:09:57;;;;;;;7.22;1.02;;;;;;;1.69;89.05;99232.97;5094972;28;20099;-65
2024/01/02 05:12:28;;;;;;;0.50;0.50;;;;;;;1.72;88.56;99234.72;5095026;28;20040;-65
2024/01/02 05:14:57;;;;;;;0.40;0.40;;;;;;;1.63;88.72;99229.47;5093571;28;20509;-65
2024/01/02 05:17:26;;;;;;;0.50;0.50;;;;;;;1.70;89.41;99237.22;5094846;28;20064;-65
2024/01/02 05:19:55;;;;;;;0.85;0.85;;;;;;;1.71;88.70;99235.53;5094449;28;20367;-65
2024/01/02 05:22:24;;;;;;;0.93;0.93;;;;;;;1.65;89.09;99233.72;5094678;28;20043;-65
2024/01/02 05:24:53;;;;;;;0.47;0.47;;;;;;;1.58;89.19;99215.91;5094207;28;20047;-65
2024/01/02 05:27:22;;;;;;;;;;;;;;;1.58;88.84;99231.00;5094716;28;20420;-65
2024/01/02 05:29:53;;;;;;;0.50;0.50;;;;;;;1.54;89.05;99224.16;5094590;28;19956;-65
2024/01/02 05:32:21;;;;;;;1.00;1.00;;;;;;;1.54;89.59;99227.53;5094883;28;20047;-65
2024/01/02 05:34:50;;;;;;;1.05;1.05;;;;;;;1.55;88.83;99225.88;5094289;28;20172;-65
2024/01/02 05:37:19;;;;;;;1.33;1.23;;;;;;;1.49;89.00;99220.69;5094468;28;20032;-65
2024/01/02 05:39:48;;;;;;;0.43;0.43;;;;;;;1.42;89.18;99208.75;5094117;28;20047;-65
2024/01/02 05:42:17;;;;;;;0.60;0.60;;;;;;;1.44;88.77;99217.19;5094776;28;20039;-65
2024/01/02 05:44:47;;;;;;;0.80;0.80;;;;;;;1.44;88.96;99219.72;5093082;28;20036;-65
2024/01/02 05:47:17;;;;;;;0.60;0.60;;;;;;;1.44;89.48;99224.72;5092800;28;20040;-65
2024/01/02 05:49:46;;;;;;;1.35;1.25;;;;;;;1.45;89.75;99226.41;5093974;28;20048;-65
2024/01/02 05:52:14;;;;;;;1.02;0.98;;;;;;;1.44;89.09;99222.22;5093025;28;20040;-65
2024/01/02 05:54:43;;;;;;;0.50;0.50;;;;;;;1.45;89.41;99227.28;5093833;28;20119;-65
2024/01/02 05:57:12;;;;;;;0.57;0.57;;;;;;;1.42;89.25;99234.72;5092973;28;20093;-65
2024/01/02 05:59:42;;;;;;;0.70;0.70;;;;;;;1.39;89.75;99232.16;5094248;28;20130;-65
2024/01/02 06:02:11;;;;;;;0.77;0.77;;;;;;;1.34;89.04;99231.16;5093715;28;20102;-65
2024/01/02 06:04:41;;;;;;;8.27;1.15;;;;;;;1.23;89.51;99208.22;5093867;28;20053;-65
2024/01/02 06:07:10;;;;;;;1.48;1.38;;;;;;;1.21;89.70;99216.53;5093852;28;20040;-65
2024/01/02 06:09:39;;;;;;;2.07;1.90;;;;;;;1.31;89.15;99226.91;5092473;28;20432;-65
2024/01/02 06:12:08;;;;;;;0.40;0.40;;;;;;;1.31;89.40;99231.94;5093566;28;20037;-65
2024/01/02 06:14:37;;;;;;;0.75;0.75;;;;;;;1.30;89.78;99227.69;5093607;28;20032;-65
2024/01/02 06:17:06;;;;;;;0.70;0.70;;;;;;;1.31;90.04;99226.03;5094252;28;20051;-65
2024/01/02 06:19:35;;;;;;;0.43;0.43;;;;;;;1.33;89.36;99224.41;5093991;28;20547;-65
2024/01/02 06:22:05;;;;;;;0.60;0.60;;;;;;;1.34;89.16;99232.00;5093613;28;20420;-65
2024/01/02 06:24:34;;;;;;;0.52;0.52;;;;;;;1.39;89.57;99229.63;5094001;28;20481;-65
2024/01/02 06:27:03;;;;;;;0.27;0.27;;;;;;;1.33;89.21;99225.28;5093583;28;20044;-65
2024/01/02 06:29:32;;;;;;;1.67;1.58;;;;;;;1.38;89.26;99224.53;5093879;28;20272;-65
2024/01/02 06:32:03;;;;;;;0.55;0.55;;;;;;;1.38;89.11;99220.38;5092115;28;20118;-65
2024/01/02 06:34:32;;;;;;;5.35;3.35;;;;;;;1.41;89.40;99217.09;5092669;28;20130;-65
2024/01/02 06:37:01;;;;;;;1.17;1.17;;;;;;;1.44;89.71;99227.25;5093444;28;20050;-65
2024/01/02 06:39:32;;;;;;;1.05;1.05;;;;;;;1.41;89.26;99217.09;5093710;28;20280;-65
2024/01/02 06:42:00;;;;;;;0.60;0.60;;;;;;;1.44;89.89;99222.22;5093588;28;20040;-65
2024/01/02 06:44:29;;;;;;;0.77;0.77;;;;;;;1.43;89.13;99225.53;5093389;28;20119;-65
2024/01/02 06:46:58;;;;;;;0.50;0.50;;;;;;;1.43;89.80;99223.00;5093691;28;20067;-65
2024/01/02 06:49:29;;;;;;;0.93;0.85;;;;;;;1.42;89.40;99221.34;5093172;28;20273;-65
2024/01/02 06:51:58;;;;;;;0.60;0.60;;;;;;;1.47;89.12;99225.66;5092466;28;20089;-65
2024/01/02 06:54:27;;;;;;;1.15;1.08;;;;;;;1.44;89.07;99230.59;5092386;28;20281;-65
2024/01/02 06:56:58;;;;;;;0.43;0.43;;;;;;;1.43;88.98;99235.59;5093259;28;20040;-65
2024/01/02 06:59:27;;;;;;;1.55;1.45;;;;;;;1.47;89.68;99232.34;5093538;28;20124;-65
2024/01/02 07:01:56;;;;;;;1.08;1.00;;;;;;;1.34;89.26;99211.88;5092031;28;20082;-65
2024/01/02 07:04:25;;;;;;;2.15;1.42;;;;;;;1.44;89.36;99227.25;5093411;28;20040;-65
2024/01/02 07:06:54;;;;;;;0.80;0.80;;;;;;;1.50;89.07;99227.41;5093681;28;20029;-65
2024/01/02 07:09:23;;;;;;;0.60;0.60;;;;;;;1.56;89.64;99222.56;5093236;28;20044;-65
2024/01/02 07:11:52;;;;;;;1.50;1.40;;;;;;;1.61;88.98;99216.00;5092768;28;20040;-65
2024/01/02 07:14:23;;;;;;;1.20;1.17;;;;;;;1.64;89.19;99211.03;5093330;28;20072;-65
2024/01/02 07:16:51;;;;;;;0.55;0.55;;;;;;;1.63;89.43;99206.81;5093365;28;20562;-65
2024/01/02 07:19:20;;;;;;;0.50;0.50;;;;;;;1.62;89.98;99203.44;5093043;28;20044;-65
2024/01/02 07:21:49;;;;;;;3.83;3.53;;;;;;;1.65;89.77;99192.63;5093109;28;20396;-65
2024/01/02 07:24:18;;;;;;;1.03;1.03;;;;;;;1.70;89.41;99188.56;5096841;28;20033;-65
2024/01/02 07:26:48;;;;;;;0.43;0.43;;;;;;;1.76;90.36;99192.09;5096630;28;20478;-65
2024/01/02 07:29:22;;;;;;;3.28;3.05;;;;;;;1.81;90.15;99189.69;5096980;28;20122;-65
2024/01/02 07:31:50;;;;;;;2.20;1.75;;;;;;;1.84;90.25;99200.69;5096092;28;20046;-65
2024/01/02 07:34:20;;;;;;;2.72;2.53;;;;;;;1.86;90.34;99198.19;5096826;28;20032;-65
2024/01/02 07:36:48;;;;;;;1.90;1.75;;;;;;;1.91;90.22;99196.66;5097069;28;20050;-65
2024/01/02 07:39:17;;;;;;;0.90;0.90;;;;;;;1.93;89.88;99188.34;5096411;28;20040;-65
2024/01/02 07:41:46;;;;;;;3.00;2.28;;;;;;;2.01;90.12;99193.56;5094786;28;20136;-65
2024/01/02 07:44:15;;;;;;;1.70;1.60;;;;;;;2.08;90.70;99192.91;5096631;28;20043;-65
2024/01/02 07:46:45;;;;;;;1.73;1.30;;;;;;;2.14;90.97;99195.56;5096399;28;20291;-65
2024/01/02 07:49:16;;;;;;;2.58;2.35;;;;;;;2.19;90.30;99194.00;5095374;28;20410;-65
2024/01/02 07:51:46;;;;;;;0.85;0.85;;;;;;;2.22;90.57;99191.56;5098288;28;20036;-65
2024/01/02 07:54:15;;;;;;;2.10;1.92;;;;;;;2.19;90.17;99191.50;5116861;28;20048;-65
2024/01/02 07:56:44;;;;;;;1.33;1.23;;;;;;;2.23;90.29;99185.72;5116434;28;20119;-65
2024/01/02 07:59:17;;;;;;;2.43;2.23;;;;;;;2.29;91.05;99170.75;5116457;28;20656;-65
2024/01/02 08:01:48;;;;;;;2.97;2.67;;;;;;;2.34;91.16;99166.69;5116388;28;20058;-65
2024/01/02 08:04:17;;;;;;;1.60;1.50;;;;;;;2.38;90.88;99165.94;5115386;28;20134;-65
2024/01/02 08:06:48;;;;;;;1.38;1.27;;;;;;;2.42;91.29;99170.25;5115068;28;20040;-65
2024/01/02 08:09:18;;;;;;;3.83;2.28;;;;;;;2.50;90.52;99168.75;5116681;28;20039;-65
2024/01/02 08:15:02;;;;;;;2.13;1.63;;;;;;;2.59;90.77;99178.19;5098968;28;20047;-64
2024/01/02 08:18:12;;;;;;;1.70;1.60;;;;;;;2.64;91.41;99169.03;5116408;28;20047;-65
2024/01/02 08:20:44;;;;;;;1.60;1.50;;;;;;;2.69;91.10;99168.34;5112232;27;20077;-65
2024/01/02 08:23:13;;;;;;;0.50;0.50;;;;;;;2.75;90.79;99171.81;5116293;28;20050;-65
2024/01/02 08:25:42;;;;;;;4.57;1.77;;;;;;;2.77;91.58;99165.13;5116199;28;20079;-65
2024/01/02 08:28:11;;;;;;;0.65;0.65;;;;;;;2.81;91.44;99161.88;5116232;27;20032;-65
2024/01/02 08:30:40;;;;;;;1.25;1.10;;;;;;;2.85;90.93;99161.13;5115860;28;20043;-65
2024/01/02 08:33:09;;;;;;;1.48;1.38;;;;;;;2.87;91.30;99172.94;5115471;28;20397;-65
2024/01/02 08:35:38;;;;;;;2.33;1.98;;;;;;;2.90;90.71;99172.16;5115814;28;20046;-65
2024/01/02 08:38:09;;;;;;;2.70;2.47;;;;;;;2.95;91.21;99178.13;5116033;28;20047;-65
2024/01/02 08:40:39;;;;;;;2.60;2.40;;;;;;;2.98;90.49;99173.13;5115910;28;20038;-65
2024/01/02 08:43:08;;;;;;;0.77;0.77;;;;;;;2.98;90.37;99170.63;5115741;28;20042;-65
2024/01/02 08:45:38;;;;;;;1.27;1.17;;;;;;;2.98;90.86;99166.44;5115439;28;20277;-64
2024/01/02 08:48:11;;;;;;;0.77;0.77;;;;;;;2.97;90.52;99169.78;5115403;28;20494;-64
2024/01/02 08:50:42;;;;;;;0.88;0.88;;;;;;;2.96;90.58;99162.19;5116047;28;20157;-65
2024/01/02 08:53:13;;;;;;;0.45;0.45;;;;;;;2.96;90.63;99167.22;5115756;28;20173;-65
2024/01/02 08:55:43;;;;;;;2.00;1.23;;;;;;;2.98;90.01;99170.63;5116013;28;20100;-65
2024/01/02 08:58:12;;;;;;;;;;;;;;;2.98;90.37;99168.09;5115701;28;20085;-65
2024/01/02 09:00:41;;;;;;;0.75;0.75;;;;;;;2.92;90.27;99151.19;5097349;28;19920;-65
2024/01/02 09:03:09;;;;;;;0.82;0.82;;;;;;;2.99;90.22;99157.22;5115059;28;20533;-65
2024/01/02 09:05:38;;;;;;;0.50;0.50;;;;;;;3.07;90.33;99165.78;5115488;28;20038;-65
2024/01/02 09:08:07;;;;;;;2.53;1.95;;;;;;;3.09;90.36;99165.00;5115118;28;20044;-64
2024/01/02 09:10:39;;;;;;;0.52;0.52;;;;;;;3.14;90.30;99173.47;5115327;28;20134;-65
2024/01/02 09:13:08;;;;;;;1.40;1.30;;;;;;;3.18;89.90;99170.22;5115571;28;20067;-65
2024/01/02 09:15:37;;;;;;;1.33;1.23;;;;;;;3.21;90.17;99171.97;5114093;28;20043;-65
2024/01/02 09:18:06;;;;;;;1.13;1.13;;;;;;;3.22;89.54;99166.06;5114078;28;20386;-65
2024/01/02 09:20:36;;;;;;;1.40;1.30;;;;;;;3.23;89.45;99165.28;5115134;28;20074;-65
2024/01/02 09:23:05;;;;;;;1.97;1.73;;;;;;;3.29;89.95;99162.84;5114176;28;20039;-65
2024/01/02 09:25:37;;;;;;;1.67;1.57;;;;;;;3.36;89.49;99157.09;5114686;28;20280;-65
2024/01/02 09:28:12;;;;;;;0.55;0.55;;;;;;;3.45;90.01;99154.78;5099146;28;20094;-65
2024/01/02 09:30:46;;;;;;;1.98;1.85;;;;;;;3.50;89.72;99155.72;5093279;28;20124;-65
2024/01/02 09:33:15;;;;;;;0.40;0.40;;;;;;;3.52;89.84;99154.06;5094332;28;20434;-65
2024/01/02 09:35:44;;;;;;;1.83;0.95;;;;;;;3.54;89.57;99149.91;5094786;28;20119;-65
2024/01/02 09:38:15;;;;;;;1.33;1.23;;;;;;;3.58;89.50;99145.75;5094418;28;20043;-65
2024/01/02 09:41:07;;;;;;;1.55;1.17;;;;;;;3.58;89.30;99141.56;5094089;28;20043;-64
2024/01/02 09:43:50;;;;;;;0.70;0.70;;;;;;;3.55;88.84;99126.34;5094484;28;20071;-66
2024/01/02 09:46:31;;;;;;;14.23;1.45;;;;;;;3.60;89.05;99129.81;5093430;28;20113;-66
2024/01/02 09:49:10;;;;;;;4.30;1.42;;;;;;;3.62;88.28;99122.28;5094071;28;20371;-66
2024/01/02 09:51:52;;;;;;;1.00;1.00;;;;;;;3.61;88.80;99120.59;5094062;28;20028;-65
2024/01/02 09:54:39;;;;;;;0.75;0.75;;;;;;;3.60;88.44;99104.59;5094082;28;20040;-65
2024/01/02 09:57:15;;;;;;;2.38;1.75;;;;;;;3.63;88.22;99104.66;5094027;28;20467;-65
2024/01/02 10:00:03;;;;;;;0.73;0.73;;;;;;;3.66;88.58;99089.56;5094119;28;20512;-65
2024/01/02 10:03:01;;;;;;;0.68;0.68;;;;;;;3.69;88.30;99084.59;5093691;28;20638;-65
2024/01/02 10:05:49;;;;;;;1.70;1.60;;;;;;;3.76;87.56;99081.34;5094069;28;20036;-64
2024/01/02 10:08:42;;;;;;;2.15;1.55;;;;;;;3.82;87.59;99091.53;5093588;28;20443;-65
2024/01/02 10:11:21;;;;;;;0.88;0.88;;;;;;;3.90;87.73;99095.03;5092902;28;20064;-65
2024/01/02 10:14:00;;;;;;;0.57;0.57;;;;;;;3.92;87.61;99077.38;5094071;28;20533;-65
2024/01/02 10:16:39;;;;;;;1.30;1.20;;;;;;;3.90;87.29;99079.88;5094060;28;20044;-65
2024/01/02 10:19:20;;;;;;;2.60;2.40;;;;;;;3.92;87.84;99062.22;5093954;28;20095;-65
2024/01/02 10:22:02;;;;;;;1.67;1.30;;;;;;;3.93;87.52;99053.84;5094136;28;20072;-65
2024/01/02 10:24:45;;;;;;;0.93;0.93;;;;;;;3.97;87.23;99060.63;5093585;28;20485;-65
2024/01/02 10:27:22;;;;;;;1.08;1.05;;;;;;;3.99;87.13;99038.78;5093484;28;20139;-65
2024/01/02 10:30:02;;;;;;;1.27;1.17;;;;;;;4.01;87.15;99037.13;5092505;28;20054;-65
2024/01/02 10:32:42;;;;;;;0.88;0.88;;;;;;;4.01;86.83;99022.81;5093717;28;20044;-65
2024/01/02 10:35:13;;;;;;;1.88;1.52;;;;;;;4.06;87.22;99020.38;5093690;28;20105;-65
2024/01/02 10:37:50;;;;;;;1.80;1.70;;;;;;;4.15;87.31;99009.56;5093892;28;20048;-65
2024/01/02 10:40:23;;;;;;;0.43;0.43;;;;;;;4.17;86.79;98997.81;5092543;28;20508;-65
2024/01/02 10:43:06;;;;;;;0.50;0.50;;;;;;;4.25;87.20;99013.91;5093508;28;20394;-65
2024/01/02 10:45:43;;;;;;;0.45;0.45;;;;;;;4.25;87.09;99011.41;5092447;28;20569;-65
2024/01/02 10:48:32;;;;;;;0.63;0.63;;;;;;;4.22;87.06;99006.28;5093533;28;20052;-65
2024/01/02 10:51:06;;;;;;;1.17;1.02;;;;;;;4.16;86.89;98999.47;5092428;28;20032;-65
2024/01/02 10:53:49;;;;;;;1.13;1.05;;;;;;;4.19;87.17;99001.19;5093456;28;20482;-65
2024/01/02 10:56:30;;;;;;;1.45;1.35;;;;;;;3.99;86.82;98948.75;5093749;28;20126;-65
2024/01/02 10:59:09;;;;;;;0.85;0.85;;;;;;;4.33;86.79;98999.69;5097474;28;20036;-65
2024/01/02 11:01:41;;;;;;;0.95;0.95;;;;;;;4.38;86.87;98982.94;5096986;28;20040;-66
2024/01/02 11:04:20;;;;;;;1.38;1.27;;;;;;;4.32;86.68;98962.66;5097772;28;20134;-65
2024/01/02 11:06:57;;;;;;;0.75;0.75;;;;;;;4.35;86.73;98968.56;5097202;28;20397;-64
2024/01/02 11:09:37;;;;;;;2.92;1.30;;;;;;;4.28;86.95;98950.81;5097357;28;20032;-65
2024/01/02 11:12:09;;;;;;;1.50;1.40;;;;;;;4.32;86.99;98945.81;5097416;28;20047;-65
2024/01/02 11:14:47;;;;;;;0.95;0.95;;;;;;;4.35;86.79;98947.50;5097268;28;20036;-65
2024/01/02 11:17:19;;;;;;;4.72;1.63;;;;;;;4.40;86.70;98944.22;5097169;28;20048;-65
2024/01/02 11:20:01;;;;;;;0.40;0.40;;;;;;;4.45;86.46;98934.16;5097475;28;20536;-65
2024/01/02 11:22:37;;;;;;;3.53;1.50;;;;;;;4.44;86.45;98929.97;5097125;28;20070;-65
2024/01/02 11:25:11;;;;;;;0.40;0.40;;;;;;;4.49;86.36;98920.72;5097148;28;20044;-65
2024/01/02 11:27:43;;;;;;;2.30;2.10;;;;;;;4.55;86.31;98915.75;5096692;28;20048;-65
2024/01/02 11:30:14;;;;;;;7.85;2.85;;;;;;;4.59;86.54;98907.38;5095049;28;20052;-65
2024/01/02 11:32:53;;;;;;;1.77;1.67;;;;;;;4.65;86.51;98899.88;5096956;28;20049;-65
2024/01/02 11:35:27;;;;;;;0.80;0.80;;;;;;;4.74;86.98;98897.44;5096793;28;20040;-65
2024/01/02 11:38:05;;;;;;;3.65;2.00;;;;;;;4.79;86.35;98895.78;5096809;28;20052;-65
2024/01/02 11:40:45;;;;;;;2.63;1.75;;;;;;;4.72;86.23;98874.69;5096712;28;20036;-65
2024/01/02 11:43:20;;;;;;;9.63;3.15;;;;;;;4.83;86.34;98882.34;5096643;28;20051;-65
2024/01/02 11:45:56;;;;;;;0.40;0.40;;;;;;;4.68;86.09;98857.78;5096679;28;20105;-65
2024/01/02 11:48:41;;;;;;;3.85;3.45;;;;;;;4.82;86.12;98880.66;5096754;28;20394;-65
2024/01/02 11:51:23;;;;;;;2.15;1.92;;;;;;;4.81;85.91;98885.69;5096582;28;20398;-65
2024/01/02 11:54:08;;;;;;;1.88;1.73;;;;;;;4.82;85.81;98864.66;5096572;28;20072;-65
2024/01/02 11:56:37;;;;;;;0.85;0.85;;;;;;;4.86;85.82;98862.16;5095285;28;20079;-65
2024/01/02 11:59:16;;;;;;;0.77;0.75;;;;;;;4.85;85.88;98844.47;5103353;28;20389;-65
2024/01/02 12:01:58;;;;;;;1.10;1.00;;;;;;;4.85;85.67;98855.41;5098208;28;20039;-65
2024/01/02 12:04:43;;;;;;;0.70;0.70;;;;;;;4.84;85.88;98848.66;5116576;28;20042;-65
2024/01/02 12:07:22;;;;;;;3.13;2.35;;;;;;;4.86;85.80;98847.00;5116607;28;20375;-65